createdAt,value
2019-01-17T00:01:21.539Z,5.40
2019-01-17T00:03:54.264Z,5.30
2019-01-17T00:06:27.367Z,5.30
2019-01-17T00:09:00.156Z,5.30
2019-01-17T00:11:46.702Z,5.30
2019-01-17T00:14:25.580Z,5.30
2019-01-17T00:16:55.895Z,5.30
2019-01-17T00:19:42.341Z,5.30
2019-01-17T00:22:29.165Z,5.30
2019-01-17T00:25:17.403Z,5.30
2019-01-17T00:27:50.256Z,5.30
2019-01-17T00:30:20.334Z,5.30
2019-01-17T00:32:56.225Z,5.30
2019-01-17T00:35:34.981Z,5.30
2019-01-17T00:38:21.550Z,5.30
2019-01-17T00:40:54.315Z,5.20
2019-01-17T00:43:41.223Z,5.20
2019-01-17T00:46:17.214Z,5.20
2019-01-17T00:48:47.647Z,5.20
2019-01-17T00:51:23.448Z,5.20
2019-01-17T00:54:08.953Z,5.20
2019-01-17T00:56:46.722Z,5.30
2019-01-17T00:59:22.747Z,5.30
2019-01-17T01:01:56.275Z,5.30
2019-01-17T01:04:26.610Z,5.30
2019-01-17T01:06:56.971Z,5.30
2019-01-17T01:09:27.313Z,5.30
2019-01-17T01:12:13.852Z,5.30
2019-01-17T01:14:44.192Z,5.30
2019-01-17T01:17:32.983Z,5.30
2019-01-17T01:20:03.119Z,5.40
2019-01-17T01:22:35.868Z,5.30
2019-01-17T01:25:25.649Z,5.30
2019-01-17T01:28:12.258Z,5.30
2019-01-17T01:30:42.635Z,5.30
2019-01-17T01:33:15.429Z,5.30
2019-01-17T01:35:45.479Z,5.30
2019-01-17T01:38:21.291Z,5.30
2019-01-17T01:40:54.367Z,5.30
2019-01-17T01:43:39.564Z,5.30
2019-01-17T01:46:25.779Z,5.30
2019-01-17T01:49:12.076Z,5.30
2019-01-17T01:51:47.935Z,5.30
2019-01-17T01:54:22.010Z,5.30
2019-01-17T01:56:46.839Z,5.30
2019-01-17T01:59:15.309Z,5.30
2019-01-17T02:01:43.761Z,5.30
2019-01-17T02:04:12.189Z,5.30
2019-01-17T02:06:40.599Z,5.30
2019-01-17T02:09:09.113Z,5.30
2019-01-17T02:11:37.804Z,5.30
2019-01-17T02:14:06.814Z,5.30
2019-01-17T02:16:35.323Z,5.30
2019-01-17T02:19:03.750Z,5.30
2019-01-17T02:21:32.541Z,5.30
2019-01-17T02:24:00.967Z,5.30
2019-01-17T02:26:29.385Z,5.30
2019-01-17T02:28:57.818Z,5.30
2019-01-17T02:31:26.226Z,5.40
2019-01-17T02:33:54.964Z,5.40
2019-01-17T02:36:23.398Z,5.40
2019-01-17T02:38:51.804Z,5.40
2019-01-17T02:41:20.225Z,5.40
2019-01-17T02:43:48.680Z,5.40
2019-01-17T02:46:17.146Z,5.30
2019-01-17T02:48:45.575Z,5.40
2019-01-17T02:51:14.309Z,5.40
2019-01-17T02:53:42.729Z,5.40
2019-01-17T02:56:11.159Z,5.40
2019-01-17T02:58:39.591Z,5.30
2019-01-17T03:01:08.074Z,5.30
2019-01-17T03:03:36.507Z,5.20
2019-01-17T03:06:05.060Z,5.20
2019-01-17T03:08:33.482Z,5.20
2019-01-17T03:11:02.261Z,5.20
2019-01-17T03:13:30.671Z,5.20
2019-01-17T03:15:59.371Z,5.20
2019-01-17T03:18:27.798Z,5.10
2019-01-17T03:20:56.225Z,5.10
2019-01-17T03:23:24.652Z,5.10
2019-01-17T03:25:53.096Z,5.10
2019-01-17T03:28:21.501Z,5.10
2019-01-17T03:30:49.913Z,5.10
2019-01-17T03:33:18.321Z,5.00
2019-01-17T03:35:46.802Z,5.10
2019-01-17T03:38:15.236Z,5.00
2019-01-17T03:40:43.673Z,5.00
2019-01-17T03:43:12.165Z,5.00
2019-01-17T03:45:40.933Z,5.10
2019-01-17T03:48:09.424Z,5.10
2019-01-17T03:50:37.848Z,5.00
2019-01-17T03:53:06.569Z,5.10
2019-01-17T03:55:35.366Z,5.00
2019-01-17T03:58:03.869Z,5.00
2019-01-17T04:00:32.375Z,5.00
2019-01-17T04:03:00.801Z,5.00
2019-01-17T04:05:29.205Z,5.00
2019-01-17T04:07:57.642Z,5.00
2019-01-17T04:10:26.412Z,5.00
2019-01-17T04:12:54.826Z,4.90
2019-01-17T04:15:23.253Z,4.90
2019-01-17T04:17:51.669Z,4.90
2019-01-17T04:20:20.433Z,4.90
2019-01-17T04:22:48.852Z,4.90
2019-01-17T04:25:17.401Z,4.90
2019-01-17T04:27:45.842Z,4.90
2019-01-17T04:30:16.523Z,4.90
2019-01-17T04:32:44.991Z,5.00
2019-01-17T04:35:13.480Z,4.90
2019-01-17T04:37:42.048Z,4.90
2019-01-17T04:40:12.692Z,4.90
2019-01-17T04:42:41.122Z,5.00
2019-01-17T04:45:12.312Z,5.00
2019-01-17T04:47:40.854Z,4.90
2019-01-17T04:50:12.003Z,5.00
2019-01-17T04:52:40.465Z,5.00
2019-01-17T04:55:10.829Z,5.10
2019-01-17T04:57:39.600Z,5.10
2019-01-17T05:00:14.661Z,5.10
2019-01-17T05:02:43.069Z,5.10
2019-01-17T05:05:11.993Z,5.20
2019-01-17T05:07:40.537Z,5.20
2019-01-17T05:10:12.004Z,5.20
2019-01-17T05:12:40.434Z,5.20
2019-01-17T05:15:10.606Z,5.20
2019-01-17T05:17:39.029Z,5.20
2019-01-17T05:20:16.702Z,5.20
2019-01-17T05:22:45.449Z,5.20
2019-01-17T05:25:14.084Z,5.30
2019-01-17T05:27:42.521Z,5.30
2019-01-17T05:30:13.856Z,5.40
2019-01-17T05:32:42.350Z,5.40
2019-01-17T05:35:11.133Z,5.40
2019-01-17T05:37:39.863Z,5.50
2019-01-17T05:40:11.368Z,5.40
2019-01-17T05:42:39.791Z,5.40
2019-01-17T05:45:08.954Z,5.40
2019-01-17T05:47:37.677Z,5.40
2019-01-17T05:50:09.497Z,5.40
2019-01-17T05:52:38.175Z,5.40
2019-01-17T05:55:07.641Z,5.40
2019-01-17T05:57:36.056Z,5.40
2019-01-17T06:00:10.695Z,5.40
2019-01-17T06:02:39.214Z,5.50
2019-01-17T06:05:08.489Z,5.50
2019-01-17T06:07:36.898Z,5.50
2019-01-17T06:10:08.570Z,5.50
2019-01-17T06:12:36.975Z,5.50
2019-01-17T06:15:08.331Z,5.50
2019-01-17T06:17:36.831Z,5.50
2019-01-17T06:20:14.127Z,5.50
2019-01-17T06:22:42.533Z,5.50
2019-01-17T06:25:11.051Z,5.50
2019-01-17T06:27:39.452Z,5.50
2019-01-17T06:30:11.492Z,5.40
2019-01-17T06:32:40.195Z,5.40
2019-01-17T06:35:09.870Z,5.40
2019-01-17T06:37:39.043Z,5.40
2019-01-17T06:40:13.441Z,5.40
2019-01-17T06:42:41.879Z,5.40
2019-01-17T06:45:10.719Z,5.40
2019-01-17T06:47:39.222Z,5.40
2019-01-17T06:50:10.059Z,5.40
2019-01-17T06:52:38.547Z,5.40
2019-01-17T06:55:08.532Z,5.40
2019-01-17T06:57:37.341Z,5.40
2019-01-17T07:00:11.429Z,5.30
2019-01-17T07:02:39.937Z,5.30
2019-01-17T07:05:09.747Z,5.40
2019-01-17T07:07:38.178Z,5.40
2019-01-17T07:10:09.608Z,5.40
2019-01-17T07:12:38.037Z,5.40
2019-01-17T07:15:08.731Z,5.40
2019-01-17T07:17:37.229Z,5.40
2019-01-17T07:20:11.289Z,5.50
2019-01-17T07:22:39.710Z,5.50
2019-01-17T07:25:09.778Z,5.50
2019-01-17T07:27:38.576Z,5.50
2019-01-17T07:30:16.046Z,5.40
2019-01-17T07:32:44.451Z,5.40
2019-01-17T07:35:12.920Z,5.40
2019-01-17T07:37:41.712Z,5.40
2019-01-17T07:40:11.349Z,5.40
2019-01-17T07:42:39.759Z,5.40
2019-01-17T07:45:11.238Z,5.40
2019-01-17T07:47:39.651Z,5.40
2019-01-17T07:50:10.026Z,5.40
2019-01-17T07:52:38.803Z,5.50
2019-01-17T07:55:09.263Z,5.50
2019-01-17T07:57:37.725Z,5.50
2019-01-17T08:00:09.244Z,5.40
2019-01-17T08:02:37.658Z,5.40
2019-01-17T08:05:07.041Z,5.50
2019-01-17T08:07:35.774Z,5.50
2019-01-17T08:10:07.280Z,5.50
2019-01-17T08:12:35.726Z,5.50
2019-01-17T08:15:06.541Z,5.50
2019-01-17T08:17:34.964Z,5.50
2019-01-17T08:20:04.647Z,5.50
2019-01-17T08:22:33.039Z,5.50
2019-01-17T08:25:01.461Z,5.50
2019-01-17T08:27:32.230Z,5.50
2019-01-17T08:30:00.932Z,5.60
2019-01-17T08:32:29.358Z,5.60
2019-01-17T08:34:57.760Z,5.60
2019-01-17T08:37:26.198Z,5.70
2019-01-17T08:39:54.615Z,5.80
2019-01-17T08:42:23.373Z,5.90
2019-01-17T08:44:51.833Z,5.80
2019-01-17T08:47:20.273Z,5.90
2019-01-17T08:49:48.694Z,5.80
2019-01-17T08:52:17.120Z,5.90
2019-01-17T08:54:45.894Z,5.80
2019-01-17T08:57:14.295Z,5.90
2019-01-17T08:59:42.729Z,5.90
2019-01-17T09:02:11.142Z,5.90
2019-01-17T09:04:39.926Z,5.90
2019-01-17T09:07:08.411Z,5.90
2019-01-17T09:09:37.135Z,5.80
2019-01-17T09:12:05.854Z,5.80
2019-01-17T09:14:34.275Z,5.80
2019-01-17T09:17:04.756Z,5.80
2019-01-17T09:19:33.161Z,5.70
2019-01-17T09:22:01.934Z,5.70
2019-01-17T09:24:30.371Z,5.80
2019-01-17T09:26:58.791Z,5.80
2019-01-17T09:29:27.216Z,5.90
2019-01-17T09:31:55.956Z,6.00
2019-01-17T09:34:24.386Z,6.00
2019-01-17T09:36:52.792Z,6.00
2019-01-17T09:39:21.223Z,6.10
2019-01-17T09:44:54.434Z,6.20
2019-01-17T09:47:22.851Z,6.20
2019-01-17T09:49:51.264Z,6.30
2019-01-17T09:52:38.121Z,6.40
2019-01-17T09:55:06.996Z,6.50
2019-01-17T09:57:35.422Z,6.50
2019-01-17T10:00:09.953Z,6.60
2019-01-17T10:02:38.402Z,6.70
2019-01-17T10:05:07.645Z,6.90
2019-01-17T10:07:36.065Z,7.00
2019-01-17T10:10:07.559Z,6.90
2019-01-17T10:12:36.275Z,7.00
2019-01-17T10:15:08.048Z,7.00
2019-01-17T10:17:39.549Z,6.90
2019-01-17T10:20:13.792Z,6.90
2019-01-17T10:23:09.464Z,6.90
2019-01-17T10:25:47.146Z,6.90
2019-01-17T10:28:41.562Z,6.90
2019-01-17T10:31:41.824Z,6.80
2019-01-17T10:34:29.805Z,6.80
2019-01-17T10:37:23.892Z,7.00
2019-01-17T10:39:55.404Z,7.00
2019-01-17T10:42:51.527Z,6.90
2019-01-17T10:45:49.869Z,6.90
2019-01-17T10:48:33.007Z,6.80
2019-01-17T10:51:21.265Z,6.70
2019-01-17T10:53:56.014Z,6.70
2019-01-17T10:56:41.668Z,6.60
2019-01-17T10:59:24.531Z,6.60
2019-01-17T11:02:01.566Z,6.70
2019-01-17T11:04:36.235Z,6.80
2019-01-17T11:07:13.764Z,6.80
2019-01-17T11:10:00.007Z,6.80
2019-01-17T11:12:31.518Z,6.70
2019-01-17T11:15:08.977Z,6.50
2019-01-17T11:17:49.425Z,6.20
2019-01-17T11:20:27.022Z,5.90
2019-01-17T11:23:10.797Z,5.80
2019-01-17T11:25:48.142Z,5.50
2019-01-17T11:28:31.830Z,5.30
2019-01-17T11:31:09.153Z,5.10
2019-01-17T11:33:58.894Z,4.80
2019-01-17T11:36:52.049Z,4.50
2019-01-17T11:39:29.391Z,4.30
2019-01-17T11:42:24.843Z,4.20
2019-01-17T11:44:56.682Z,4.20
2019-01-17T11:47:34.205Z,4.30
2019-01-17T11:50:25.540Z,4.20
2019-01-17T11:53:05.916Z,4.10
2019-01-17T11:55:37.408Z,4.10
2019-01-17T11:58:40.264Z,4.00
2019-01-17T12:01:14.507Z,3.90
2019-01-17T12:03:51.781Z,4.00
2019-01-17T12:06:20.209Z,4.00
2019-01-17T12:08:48.626Z,3.90
2019-01-17T12:11:17.079Z,3.70
2019-01-17T12:13:45.815Z,3.50
2019-01-17T12:16:14.234Z,3.40
2019-01-17T12:18:42.650Z,3.40
2019-01-17T12:21:11.065Z,3.30
2019-01-17T12:23:39.508Z,3.20
2019-01-17T12:26:07.919Z,3.30
2019-01-17T12:28:36.644Z,3.30
2019-01-17T12:31:05.117Z,3.40
2019-01-17T12:33:33.514Z,3.50
2019-01-17T12:36:02.279Z,3.50
2019-01-17T12:38:30.983Z,3.50
2019-01-17T12:40:59.424Z,3.50
2019-01-17T12:43:27.845Z,3.60
2019-01-17T12:45:56.282Z,3.70
2019-01-17T12:48:25.005Z,3.70
2019-01-17T12:50:53.718Z,3.70
2019-01-17T12:53:22.156Z,3.60
2019-01-17T12:55:50.573Z,3.70
2019-01-17T12:58:19.086Z,3.70
2019-01-17T13:00:47.507Z,3.70
2019-01-17T13:03:16.241Z,3.80
2019-01-17T13:05:44.655Z,3.90
2019-01-17T13:08:13.087Z,3.90
2019-01-17T13:10:41.491Z,4.00
2019-01-17T13:13:10.183Z,3.90
2019-01-17T13:15:38.612Z,3.90
2019-01-17T13:18:07.039Z,3.90
2019-01-17T13:20:35.449Z,3.90
2019-01-17T13:23:03.886Z,3.90
2019-01-17T13:25:32.380Z,3.90
2019-01-17T13:28:01.113Z,3.80
2019-01-17T13:30:29.809Z,3.80
2019-01-17T13:32:58.618Z,3.80
2019-01-17T13:35:27.063Z,3.60
2019-01-17T13:37:55.738Z,3.60
2019-01-17T13:40:24.232Z,3.60
2019-01-17T13:42:52.806Z,3.60
2019-01-17T13:45:22.217Z,3.60
2019-01-17T13:47:50.643Z,3.60
2019-01-17T13:50:19.609Z,3.70
2019-01-17T13:52:48.009Z,3.70
2019-01-17T13:55:17.383Z,3.70
2019-01-17T13:57:45.873Z,3.60
2019-01-17T14:00:19.712Z,3.60
2019-01-17T14:02:48.189Z,3.60
2019-01-17T14:05:16.892Z,3.60
2019-01-17T14:07:45.920Z,3.70
2019-01-17T14:10:16.350Z,3.60
2019-01-17T14:12:44.909Z,3.60
2019-01-17T14:15:22.551Z,3.70
2019-01-17T14:17:50.978Z,3.70
2019-01-17T14:20:19.379Z,3.70
2019-01-17T14:22:47.803Z,3.70
2019-01-17T14:25:17.370Z,3.70
2019-01-17T14:27:46.034Z,3.70
2019-01-17T14:30:20.301Z,3.80
2019-01-17T14:32:48.710Z,4.00
2019-01-17T14:35:17.114Z,4.80
2019-01-17T14:37:45.595Z,5.80
2019-01-17T14:40:14.077Z,6.60
2019-01-17T14:42:42.494Z,7.20
2019-01-17T14:45:14.415Z,7.60
2019-01-17T14:47:42.830Z,7.90
2019-01-17T14:50:17.031Z,7.30
2019-01-17T14:52:45.434Z,6.80
2019-01-17T14:55:14.026Z,6.30
2019-01-17T14:57:42.772Z,5.80
2019-01-17T15:00:20.067Z,5.50
2019-01-17T15:02:48.495Z,5.20
2019-01-17T15:05:17.125Z,5.10
2019-01-17T15:07:45.545Z,5.00
2019-01-17T15:10:17.015Z,4.90
2019-01-17T15:12:45.693Z,4.80
2019-01-17T15:15:14.548Z,4.70
2019-01-17T15:17:42.985Z,4.70
2019-01-17T15:20:14.699Z,4.70
2019-01-17T15:22:43.851Z,4.40
2019-01-17T15:25:12.621Z,3.90
2019-01-17T15:27:41.062Z,3.60
2019-01-17T15:30:13.221Z,3.40
2019-01-17T15:32:41.929Z,3.40
2019-01-17T15:35:10.412Z,3.20
2019-01-17T15:37:38.841Z,3.10
2019-01-17T15:40:13.735Z,3.00
2019-01-17T15:42:42.434Z,3.10
2019-01-17T15:45:11.338Z,3.10
2019-01-17T15:47:39.756Z,3.00
2019-01-17T15:50:11.651Z,2.90
2019-01-17T15:52:40.324Z,2.90
2019-01-17T15:55:11.771Z,3.00
2019-01-17T15:57:40.294Z,3.00
2019-01-17T16:00:20.654Z,3.00
2019-01-17T16:02:49.062Z,3.00
2019-01-17T16:05:17.807Z,3.00
2019-01-17T16:07:46.727Z,3.10
2019-01-17T16:10:16.280Z,3.00
2019-01-17T16:12:44.705Z,3.00
2019-01-17T16:15:21.359Z,3.00
2019-01-17T16:17:49.780Z,3.00
2019-01-17T16:20:18.650Z,3.00
2019-01-17T16:22:47.500Z,3.00
2019-01-17T16:25:15.970Z,3.10
2019-01-17T16:27:44.474Z,3.10
2019-01-17T16:30:24.199Z,3.10
2019-01-17T16:32:52.635Z,3.10
2019-01-17T16:35:21.031Z,3.20
2019-01-17T16:37:49.803Z,3.40
2019-01-17T16:40:18.353Z,3.40
2019-01-17T16:42:47.117Z,3.40
2019-01-17T16:45:17.809Z,3.50
2019-01-17T16:47:46.483Z,3.50
2019-01-17T16:50:19.857Z,3.60
2019-01-17T16:52:48.278Z,3.60
2019-01-17T16:55:16.843Z,3.60
2019-01-17T16:57:49.215Z,3.60
2019-01-17T17:00:21.478Z,3.60
2019-01-17T17:02:51.310Z,3.60
2019-01-17T17:05:19.724Z,3.60
2019-01-17T17:07:48.143Z,3.60
2019-01-17T17:10:16.725Z,3.60
2019-01-17T17:12:45.471Z,3.50
2019-01-17T17:15:14.627Z,3.40
2019-01-17T17:17:43.311Z,3.50
2019-01-17T17:20:15.146Z,3.40
2019-01-17T17:22:43.550Z,3.40
2019-01-17T17:25:12.099Z,3.20
2019-01-17T17:27:40.500Z,3.30
2019-01-17T17:30:24.236Z,3.30
2019-01-17T17:32:52.715Z,3.20
2019-01-17T17:35:21.210Z,3.10
2019-01-17T17:37:49.611Z,3.10
2019-01-17T17:40:23.291Z,3.10
2019-01-17T17:42:52.029Z,3.10
2019-01-17T17:45:20.840Z,3.10
2019-01-17T17:47:49.254Z,3.10
2019-01-17T17:50:21.915Z,3.00
2019-01-17T17:52:50.334Z,3.10
2019-01-17T17:55:19.782Z,3.10
2019-01-17T17:57:48.273Z,3.10
2019-01-17T18:00:41.802Z,3.10
2019-01-17T18:03:10.317Z,3.10
2019-01-17T18:05:38.802Z,3.10
2019-01-17T18:08:07.523Z,3.10
2019-01-17T18:10:35.942Z,3.00
2019-01-17T18:13:04.416Z,3.00
2019-01-17T18:15:32.853Z,2.90
2019-01-17T18:18:01.318Z,2.90
2019-01-17T18:20:30.357Z,2.90
2019-01-17T18:22:58.773Z,2.80
2019-01-17T18:25:51.369Z,2.80
2019-01-17T18:28:20.059Z,2.80
2019-01-17T18:30:48.790Z,2.80
2019-01-17T18:33:17.198Z,2.70
2019-01-17T18:35:45.625Z,2.70
2019-01-17T18:38:14.033Z,2.60
2019-01-17T18:40:42.452Z,2.60
2019-01-17T18:43:10.923Z,2.60
2019-01-17T18:45:39.607Z,2.50
2019-01-17T18:48:08.105Z,2.60
2019-01-17T18:50:36.665Z,2.60
2019-01-17T18:53:05.527Z,2.50
2019-01-17T18:55:33.941Z,2.50
2019-01-17T18:58:02.485Z,2.50
2019-01-17T19:00:31.689Z,2.50
2019-01-17T19:03:00.168Z,2.60
2019-01-17T19:05:29.933Z,2.70
2019-01-17T19:07:58.413Z,2.70
2019-01-17T19:10:26.866Z,2.80
2019-01-17T19:12:55.422Z,2.70
2019-01-17T19:15:31.176Z,2.80
2019-01-17T19:17:59.965Z,2.80
2019-01-17T19:20:28.466Z,2.70
2019-01-17T19:22:57.043Z,2.60
2019-01-17T19:25:25.576Z,2.60
2019-01-17T19:27:54.109Z,2.60
2019-01-17T19:30:27.853Z,2.60
2019-01-17T19:32:56.374Z,2.60
2019-01-17T19:35:25.042Z,2.60
2019-01-17T19:37:53.525Z,2.50
2019-01-17T19:40:24.287Z,2.50
2019-01-17T19:42:52.844Z,2.30
2019-01-17T19:45:21.270Z,2.40
2019-01-17T19:47:49.901Z,2.40
2019-01-17T19:50:24.127Z,2.50
2019-01-17T19:52:52.717Z,2.50
2019-01-17T19:55:21.192Z,2.40
2019-01-17T19:57:49.640Z,2.50
2019-01-17T20:00:19.863Z,2.50
2019-01-17T20:02:48.355Z,2.40
2019-01-17T20:05:19.376Z,2.50
2019-01-17T20:07:47.875Z,2.50
2019-01-17T20:10:19.053Z,2.30
2019-01-17T20:12:47.453Z,2.30
2019-01-17T20:15:16.030Z,2.20
2019-01-17T20:17:44.448Z,2.20
2019-01-17T20:20:17.612Z,2.10
2019-01-17T20:22:46.234Z,2.10
2019-01-17T20:25:15.371Z,2.10
2019-01-17T20:27:43.850Z,2.10
2019-01-17T20:30:15.599Z,2.10
2019-01-17T20:32:44.120Z,2.10
2019-01-17T20:35:12.601Z,2.20
2019-01-17T20:37:41.041Z,2.20
2019-01-17T20:40:12.890Z,2.20
2019-01-17T20:42:41.303Z,2.20
2019-01-17T20:45:11.978Z,2.20
2019-01-17T20:47:40.435Z,2.20
2019-01-17T20:50:12.073Z,2.10
2019-01-17T20:52:40.754Z,2.10
2019-01-17T20:55:11.302Z,2.00
2019-01-17T20:57:40.147Z,1.90
2019-01-17T21:00:26.615Z,1.70
2019-01-17T21:02:55.108Z,1.70
2019-01-17T21:05:24.826Z,1.50
2019-01-17T21:07:53.235Z,1.60
2019-01-17T21:10:22.238Z,1.60
2019-01-17T21:12:51.008Z,1.60
2019-01-17T21:15:19.712Z,1.60
2019-01-17T21:17:48.120Z,1.70
2019-01-17T21:20:16.600Z,1.70
2019-01-17T21:22:45.021Z,1.70
2019-01-17T21:25:20.610Z,1.70
2019-01-17T21:27:49.040Z,1.70
2019-01-17T21:30:25.498Z,1.70
2019-01-17T21:32:54.206Z,1.70
2019-01-17T21:35:23.035Z,1.60
2019-01-17T21:37:51.732Z,1.60
2019-01-17T21:40:24.181Z,1.60
2019-01-17T21:42:52.591Z,1.60
2019-01-17T21:45:21.059Z,1.60
2019-01-17T21:47:49.485Z,1.50
2019-01-17T21:50:24.105Z,1.50
2019-01-17T21:52:52.528Z,1.50
2019-01-17T21:55:21.010Z,1.50
2019-01-17T21:57:49.724Z,1.40
2019-01-17T22:00:24.026Z,1.40
2019-01-17T22:02:52.495Z,1.40
2019-01-17T22:05:20.999Z,1.40
2019-01-17T22:07:49.399Z,1.40
2019-01-17T22:10:19.458Z,1.40
2019-01-17T22:12:47.942Z,1.40
2019-01-17T22:15:21.639Z,1.40
2019-01-17T22:17:50.056Z,1.40
2019-01-17T22:20:18.741Z,1.50
2019-01-17T22:22:47.693Z,1.50
2019-01-17T22:25:18.641Z,1.50
2019-01-17T22:27:48.768Z,1.60
2019-01-17T22:30:19.978Z,1.60
2019-01-17T22:32:48.794Z,1.60
2019-01-17T22:35:17.192Z,1.60
2019-01-17T22:37:45.904Z,1.50
2019-01-17T22:40:16.176Z,1.60
2019-01-17T22:42:44.594Z,1.50
2019-01-17T22:45:16.335Z,1.50
2019-01-17T22:47:44.834Z,1.40
2019-01-17T22:50:15.769Z,1.40
2019-01-17T22:52:44.231Z,1.40
2019-01-17T22:55:12.633Z,1.40
2019-01-17T22:57:41.056Z,1.40
2019-01-17T23:00:18.551Z,1.40
2019-01-17T23:02:47.032Z,1.50
2019-01-17T23:05:15.450Z,1.50
2019-01-17T23:07:43.863Z,1.40
2019-01-17T23:10:12.265Z,1.40
2019-01-17T23:12:40.969Z,1.40
2019-01-17T23:15:09.934Z,1.30
2019-01-17T23:17:38.338Z,1.30
2019-01-17T23:20:09.695Z,1.20
2019-01-17T23:22:38.155Z,1.20
2019-01-17T23:25:07.920Z,1.20
2019-01-17T23:27:36.333Z,1.10
2019-01-17T23:30:08.102Z,1.10
2019-01-17T23:32:36.590Z,1.00
2019-01-17T23:35:06.834Z,1.00
2019-01-17T23:37:35.565Z,1.00
2019-01-17T23:40:07.247Z,1.00
2019-01-17T23:42:35.957Z,1.00
2019-01-17T23:45:07.197Z,1.00
2019-01-17T23:47:35.638Z,1.00
2019-01-17T23:50:07.095Z,1.00
2019-01-17T23:52:35.535Z,1.00
2019-01-17T23:55:05.646Z,1.00
2019-01-17T23:57:34.368Z,1.00
